Time;durP1;ratioP1;P1;durP2;ratioP2;P2;SDS_P1;SDS_P2;PMS_P1;PMS_P2;Temp;Humidity;BMP_temperature;BMP_pressure;BME280_temperature;BME280_humidity;BME280_pressure;Samples;Min_cycle;Max_cycle;Signal;HPM_P1;HPM_P2
2024/01/25 00:02:14;;;;;;;30.92;4.80;;;;;;;;;;5082662;28;20036;-77
2024/01/25 00:04:40;;;;;;;30.58;5.30;;;;;;;;;;5076539;28;20024;-79
2024/01/25 00:07:09;;;;;;;16.00;3.30;;;;;;;;;;5073697;28;20047;-79
2024/01/25 00:09:35;;;;;;;13.48;2.17;;;;;;;;;;5075461;28;20032;-77
2024/01/25 00:12:01;;;;;;;15.75;2.55;;;;;;;;;;5076299;28;20055;-78
2024/01/25 00:14:27;;;;;;;10.57;1.38;;;;;;;;;;5076497;28;20483;-78
2024/01/25 00:16:53;;;;;;;9.40;1.58;;;;;;;;;;5082778;28;20032;-77
2024/01/25 00:19:19;;;;;;;18.45;3.80;;;;;;;;;;5087202;28;20052;-76
2024/01/25 00:21:45;;;;;;;18.42;1.50;;;;;;;;;;5080701;28;20603;-77
2024/01/25 00:24:12;;;;;;;9.73;1.92;;;;;;;;;;5083457;28;20157;-76
2024/01/25 00:26:38;;;;;;;14.23;2.65;;;;;;;;;;5079335;28;20036;-77
2024/01/25 00:29:04;;;;;;;9.93;2.60;;;;;;;;;;5083494;28;20050;-77
2024/01/25 00:31:30;;;;;;;14.48;1.85;;;;;;;;;;5083057;28;20028;-76
2024/01/25 00:33:57;;;;;;;5.10;2.30;;;;;;;;;;5073871;28;20027;-76
2024/01/25 00:36:23;;;;;;;14.73;1.60;;;;;;;;;;5085335;28;20085;-76
2024/01/25 00:38:49;;;;;;;7.95;1.73;;;;;;;;;;5075433;28;20039;-76
2024/01/25 00:41:18;;;;;;;15.23;2.30;;;;;;;;;;5084167;28;20039;-77
2024/01/25 00:43:44;;;;;;;18.88;1.90;;;;;;;;;;5081230;28;20533;-77
2024/01/25 00:46:10;;;;;;;10.38;2.22;;;;;;;;;;5085377;28;20174;-78
2024/01/25 00:48:37;;;;;;;14.35;2.42;;;;;;;;;;5079493;28;20024;-76
2024/01/25 00:51:07;;;;;;;19.52;2.03;;;;;;;;;;5088685;28;20024;-77
2024/01/25 00:53:33;;;;;;;14.43;1.92;;;;;;;;;;5080838;28;20461;-77
2024/01/25 00:55:59;;;;;;;26.50;3.13;;;8.20;99.90;;;;;;5083897;28;20020;-77
2024/01/25 00:58:25;;;;;;;9.88;2.28;;;;;;;;;;5080065;28;20035;-77
2024/01/25 01:00:51;;;;;;;12.55;1.77;;;7.30;99.90;;;;;;5085835;28;20073;-76
2024/01/25 01:03:19;;;;;;;16.80;1.95;;;;;;;;;;5079659;28;20539;-77
2024/01/25 01:05:45;;;;;;;12.18;1.83;;;;;;;;;;5076553;28;20067;-76
2024/01/25 01:08:11;;;;;;;11.65;1.25;;;;;;;;;;5081585;28;20111;-76
2024/01/25 01:10:37;;;;;;;12.45;1.83;;;;;;;;;;5077181;28;20028;-76
2024/01/25 01:13:03;;;;;;;4.72;1.45;;;;;;;;;;5082114;28;20117;-77
2024/01/25 01:15:29;;;;;;;5.15;1.83;;;;;;;;;;5079774;28;20058;-78
2024/01/25 01:17:55;;;;;;;19.75;2.58;;;;;;;;;;5086934;28;20179;-76
2024/01/25 01:20:21;;;;;;;16.35;1.98;;;;;;;;;;5082384;28;20024;-78
2024/01/25 01:22:47;;;;;;;13.27;1.55;;;;;;;;;;5088792;28;20500;-76
2024/01/25 01:25:13;;;;;;;6.45;0.98;;;;;;;;;;5096679;28;20328;-76
2024/01/25 01:27:39;;;;;;;11.77;1.63;;;;;;;;;;5090540;28;20088;-77
2024/01/25 01:30:08;;;;;;;10.75;1.63;;;;;;;;;;5089410;28;20169;-77
2024/01/25 01:32:34;;;;;;;12.75;2.33;;;;;;;;;;5079275;28;20044;-76
2024/01/25 01:35:00;;;;;;;6.88;1.38;;;;;;;;;;5086922;28;20107;-78
2024/01/25 01:37:26;;;;;;;15.30;1.52;;;;;;;;;;5082565;28;20128;-78
2024/01/25 01:39:52;;;;;;;23.65;2.50;;;;;;;;;;5085833;28;20128;-78
2024/01/25 01:42:18;;;;;;;14.07;1.85;;;;;;;;;;5081242;28;22405;-79
2024/01/25 01:44:44;;;;;;;5.28;1.27;;;;;;;;;;5081148;28;20134;-79
2024/01/25 01:47:10;;;;;;;14.27;1.67;;;;;;;;;;5075612;28;20230;-78
2024/01/25 01:49:36;;;;;;;9.20;1.15;;;;;;;;;;5078282;28;20495;-78
2024/01/25 01:52:02;;;;;;;14.00;2.00;;;;;;;;;;5081388;28;20023;-78
2024/01/25 01:54:28;;;;;;;21.02;1.98;;;;;;;;;;5088092;28;20032;-77
2024/01/25 01:56:55;;;;;;;6.63;1.45;;;;;;;;;;5085885;28;20109;-79
2024/01/25 01:59:21;;;;;;;13.98;2.20;;;;;;;;;;5074301;28;20034;-78
2024/01/25 02:01:47;;;;;;;21.55;3.80;;;;;;;;;;5079360;28;20043;-78
2024/01/25 02:04:13;;;;;;;13.98;2.70;;;;;;;;;;5084645;28;20032;-78
2024/01/25 02:06:40;;;;;;;20.65;2.42;;;;;;;;;;5080589;28;20560;-77
2024/01/25 02:09:07;;;;;;;15.25;1.80;;;;;;;;;;5083009;28;20028;-78
2024/01/25 02:11:33;;;;;;;12.60;1.48;;;;;;;;;;5080522;28;20027;-79
2024/01/25 02:13:59;;;;;;;11.30;1.35;;;;;;;;;;5085021;28;20028;-79
2024/01/25 02:16:25;;;;;;;11.63;1.88;;;;;;;;;;5080919;28;20032;-76
2024/01/25 02:18:54;;;;;;;14.90;1.73;;;;;;;;;;5082202;28;20032;-78
2024/01/25 02:21:19;;;;;;;10.07;1.20;;;;;;;;;;5087632;28;20035;-77
2024/01/25 02:23:45;;;;;;;16.65;1.98;;;;;;;;;;5080049;28;20032;-77
2024/01/25 02:26:11;;;;;;;17.67;1.98;;;;;;;;;;5083031;28;20032;-77
2024/01/25 02:28:37;;;;;;;11.25;2.30;;;;;;;;;;5076267;28;20081;-78
2024/01/25 02:31:03;;;;;;;9.13;2.13;;;;;;;;;;5083830;28;20104;-77
2024/01/25 02:33:29;;;;;;;8.43;2.03;;;;;;;;;;5074989;28;20055;-78
2024/01/25 02:35:55;;;;;;;11.32;1.33;;;;;;;;;;5087855;28;20028;-78
2024/01/25 02:38:21;;;;;;;17.98;2.72;;;;;;;;;;5078683;28;20162;-78
2024/01/25 02:40:47;;;;;;;13.77;1.88;;;;;;;;;;5084607;28;20115;-78
2024/01/25 02:43:14;;;;;;;15.52;1.55;;;;;;;;;;5087874;28;20046;-77
2024/01/25 02:45:40;;;;;;;13.82;1.67;;;;;;;;;;5082973;28;20399;-77
2024/01/25 02:48:06;;;;;;;10.57;2.28;;;;;;;;;;5076102;28;20487;-77
2024/01/25 02:50:32;;;;;;;28.30;3.88;;;;;;;;;;5083570;28;20028;-77
2024/01/25 02:52:59;;;;;;;7.63;1.27;;;;;;;;;;5076904;28;20028;-77
2024/01/25 02:55:25;;;;;;;13.80;1.35;;;;;;;;;;5079468;28;20497;-77
2024/01/25 02:57:51;;;;;;;18.98;1.88;;;;;;;;;;5081182;28;20055;-77
2024/01/25 03:00:17;;;;;;;8.35;1.45;;;;;;;;;;5082731;28;20051;-76
2024/01/25 03:02:43;;;;;;;7.35;2.33;;;;;;;;;;5082110;28;20038;-77
2024/01/25 03:05:08;;;;;;;9.98;1.65;;;;;;;;;;5083896;28;20040;-76
2024/01/25 03:07:34;;;;;;;10.15;1.40;;;;;;;;;;5080348;28;20131;-77
2024/01/25 03:10:00;;;;;;;9.95;1.75;;;;;;;;;;5074505;28;21490;-76
2024/01/25 03:12:26;;;;;;;7.25;1.63;;;;;;;;;;5079626;28;20024;-76
2024/01/25 03:14:52;;;;;;;6.05;1.45;;;;;;;;;;5077222;28;20118;-77
2024/01/25 03:17:18;;;;;;;8.15;1.45;;;;;;;;;;5076143;28;20032;-76
2024/01/25 03:19:44;;;;;;;12.00;2.00;;;;;;;;;;5078437;28;20024;-77
2024/01/25 03:22:10;;;;;;;9.20;1.80;;;;;;;;;;5073754;28;20651;-78
2024/01/25 03:24:39;;;;;;;5.50;0.85;;;;;;;;;;5078074;28;20105;-77
2024/01/25 03:27:05;;;;;;;15.68;1.08;;;;;;;;;;5076163;28;20111;-77
2024/01/25 03:29:31;;;;;;;3.90;1.63;;;;;;;;;;5076539;28;20088;-77
2024/01/25 03:31:57;;;;;;;11.48;2.20;;;;;;;;;;5074153;28;20024;-78
2024/01/25 03:34:23;;;;;;;7.18;1.52;;;;;;;;;;5082202;28;20031;-77
2024/01/25 03:36:52;;;;;;;17.48;1.60;;;;;;;;;;5078957;28;20200;-77
2024/01/25 03:39:18;;;;;;;11.27;1.15;;;;;;;;;;5080073;28;20160;-77
2024/01/25 03:41:44;;;;;;;7.13;1.10;;;;;;;;;;5073388;28;20024;-76
2024/01/25 03:44:10;;;;;;;23.05;1.40;;;;;;;;;;5081398;28;20048;-77
2024/01/25 03:46:36;;;;;;;8.93;1.63;;;;;;;;;;5079491;28;20607;-77
2024/01/25 03:49:01;;;;;;;8.40;1.85;;;;;;;;;;5066408;28;20044;-76
2024/01/25 03:51:27;;;;;;;11.98;1.98;;;;;;;;;;5081651;28;20486;-75
2024/01/25 03:53:55;;;;;;;13.25;1.42;;;;;;;;;;5081819;28;21032;-77
2024/01/25 03:56:22;;;;;;;11.18;1.40;;;;;;;;;;5076114;28;20522;-77
2024/01/25 03:58:48;;;;;;;10.27;1.23;;;;;;;;;;5087219;28;20448;-77
2024/01/25 04:01:14;;;;;;;14.05;2.38;;;;;;;;;;5086997;28;20040;-77
2024/01/25 04:03:41;;;;;;;9.07;1.98;;;;;;;;;;5075903;28;20032;-76
2024/01/25 04:06:07;;;;;;;16.23;1.63;;;;;;;;;;5082060;28;20024;-77
2024/01/25 04:08:33;;;;;;;11.05;1.85;;;;;;;;;;5081304;28;20024;-77
2024/01/25 04:10:59;;;;;;;8.02;1.63;;;;;;;;;;5088128;28;20083;-75
2024/01/25 04:13:24;;;;;;;16.48;1.48;;;;;;;;;;5083355;28;20488;-77
2024/01/25 04:15:51;;;;;;;14.90;2.55;;;;;;;;;;5086110;28;20059;-76
2024/01/25 04:18:17;;;;;;;9.80;1.45;;;;;;;;;;5077119;28;20119;-77
2024/01/25 04:20:44;;;;;;;14.77;1.80;;;;;;;;;;5087227;28;20750;-76
2024/01/25 04:23:10;;;;;;;11.48;1.13;;;;;;;;;;5078418;28;20020;-77
2024/01/25 04:25:36;;;;;;;7.57;1.77;;;;;;;;;;5086537;28;20841;-76
2024/01/25 04:28:02;;;;;;;16.70;1.65;;;;;;;;;;5081736;28;20028;-78
2024/01/25 04:30:28;;;;;;;5.78;1.10;;;;;;;;;;5084512;28;20158;-76
2024/01/25 04:32:54;;;;;;;7.88;1.17;;;;;;;;;;5084192;28;20052;-77
2024/01/25 04:35:20;;;;;;;5.25;1.40;;;;;;;;;;5087009;28;20081;-77
2024/01/25 04:37:46;;;;;;;13.43;1.20;;;;;;;;;;5093389;28;20028;-78
2024/01/25 04:40:12;;;;;;;7.95;1.77;;;;;;;;;;5088996;28;20032;-77
2024/01/25 04:42:38;;;;;;;7.15;1.50;;;;;;;;;;5092099;28;20028;-78
2024/01/25 04:45:04;;;;;;;14.18;1.10;;;;;;;;;;5088001;28;20545;-79
2024/01/25 04:47:30;;;;;;;4.25;0.80;;;;;;;;;;5080878;28;20671;-79
2024/01/25 04:49:56;;;;;;;8.68;1.35;;;;;;;;;;5083205;28;20122;-77
2024/01/25 04:52:22;;;;;;;9.50;1.20;;;;;;;;;;5085256;28;20229;-79
2024/01/25 04:54:48;;;;;;;3.55;1.20;;;;;;;;;;5082097;28;20050;-78
2024/01/25 04:57:14;;;;;;;13.65;2.20;;;;;;;;;;5079626;28;20036;-78
2024/01/25 04:59:40;;;;;;;18.65;1.95;;;;;;;;;;5088160;28;20047;-78
2024/01/25 05:02:06;;;;;;;4.20;1.15;;;;;;;;;;5084119;28;20044;-78
2024/01/25 05:04:33;;;;;;;10.07;2.28;;;;;;;;;;5092305;28;20449;-78
2024/01/25 05:06:59;;;;;;;13.95;2.10;;;;;;;;;;5069471;28;20035;-77
2024/01/25 05:09:24;;;;;;;16.63;2.40;;;;;;;;;;5082139;28;20024;-77
2024/01/25 05:11:50;;;;;;;8.27;2.00;;;;;;;;;;5068086;28;20032;-77
2024/01/25 05:14:16;;;;;;;11.80;1.35;;;;;;;;;;5090376;28;20056;-77
2024/01/25 05:16:42;;;;;;;8.45;1.85;;;;;;;;;;5086299;28;20042;-77
2024/01/25 05:19:08;;;;;;;6.70;1.55;;;;;;;;;;5080833;28;20031;-77
2024/01/25 05:21:34;;;;;;;22.45;1.48;;;;;;;;;;5081178;28;20032;-76
2024/01/25 05:24:00;;;;;;;10.50;1.25;;;;;;;;;;5080514;28;20088;-76
2024/01/25 05:26:26;;;;;;;9.85;1.60;;;;;;;;;;5083627;28;20040;-76
2024/01/25 05:28:52;;;;;;;2.35;1.10;;;;;;;;;;5086656;28;20032;-77
2024/01/25 05:31:18;;;;;;;13.10;1.40;;;;;;;;;;5074323;28;20032;-77
2024/01/25 05:33:44;;;;;;;5.78;1.27;;;;;;;;;;5084797;28;20059;-77
2024/01/25 05:36:10;;;;;;;4.18;0.63;;;;;;;;;;5088297;28;20028;-76
2024/01/25 05:38:36;;;;;;;11.60;2.05;;;;;;;;;;5079462;28;20040;-77
2024/01/25 05:41:02;;;;;;;5.18;1.45;;;;;;;;;;5084542;28;20036;-78
2024/01/25 05:43:27;;;;;;;16.98;2.42;;;;;;;;;;5079565;28;20060;-78
2024/01/25 05:45:53;;;;;;;8.00;1.85;;;;;;;;;;5082601;28;20152;-78
2024/01/25 05:48:19;;;;;;;6.50;1.65;;;;;;;;;;5080361;28;20085;-77
2024/01/25 05:50:45;;;;;;;7.80;1.85;;;;;;;;;;5083243;28;20428;-76
2024/01/25 05:53:11;;;;;;;13.90;2.65;;;;;;;;;;5081163;28;20082;-78
2024/01/25 05:55:37;;;;;;;2.83;1.27;;;;;;;;;;5078637;28;20104;-78
2024/01/25 05:58:03;;;;;;;17.75;3.28;;;;;;;;;;5077709;28;20387;-77
2024/01/25 06:00:29;;;;;;;8.00;1.40;;;;;;;;;;5083505;28;20039;-77
2024/01/25 06:02:55;;;;;;;9.57;2.70;;;;;;;;;;5084712;28;20043;-78
2024/01/25 06:05:21;;;;;;;29.17;8.35;;;;;;;;;;5081062;28;20028;-75
2024/01/25 06:07:49;;;;;;;33.47;10.95;;;;;;;;;;5079205;28;20111;-76
2024/01/25 06:10:15;;;;;;;24.33;8.07;;;;;;;;;;5073541;28;20035;-77
2024/01/25 06:12:41;;;;;;;18.77;4.63;;;;;;;;;;5077975;28;20404;-76
2024/01/25 06:15:07;;;;;;;26.58;6.03;;;;;;;;;;5068633;28;20028;-76
2024/01/25 06:17:33;;;;;;;20.42;7.38;;;;;;;;;;5076252;28;20027;-77
2024/01/25 06:19:59;;;;;;;17.25;7.20;;;4.70;99.90;;;;;;5080454;28;20024;-76
2024/01/25 06:22:25;;;;;;;27.73;6.75;;;;;;;;;;5077737;28;20496;-76
2024/01/25 06:24:51;;;;;;;27.67;6.68;;;;;;;;;;5086124;28;20034;-77
2024/01/25 06:27:17;;;;;;;27.92;11.02;;;;;;;;;;5083387;28;20057;-76
2024/01/25 06:29:43;;;;;;;58.05;18.42;;;;;;;;;;5084423;28;20047;-76
2024/01/25 06:32:10;;;;;;;42.05;14.13;;;;;;;;;;5083023;28;20524;-75
2024/01/25 06:34:36;;;;;;;36.20;11.82;;;;;;;;;;5083844;28;20122;-78
2024/01/25 06:37:02;;;;;;;21.38;7.70;;;;;;;;;;5080584;28;20385;-77
2024/01/25 06:39:28;;;;;;;27.52;6.93;;;;;;;;;;5078751;28;20019;-78
2024/01/25 06:41:54;;;;;;;16.52;5.18;;;;;;;;;;5075988;28;20019;-77
2024/01/25 06:44:20;;;;;;;17.10;5.82;;;;;;;;;;5082167;28;20020;-75
2024/01/25 06:46:46;;;;;;;14.57;4.30;;;;;;;;;;5083675;28;20834;-76
2024/01/25 06:49:12;;;;;;;12.55;3.90;;;;;;;;;;5077968;28;20055;-77
2024/01/25 06:51:38;;;;;;;15.48;4.85;;;;;;;;;;5078347;28;20202;-77
2024/01/25 06:54:04;;;;;;;15.40;5.72;;;;;;;;;;5080397;28;20707;-76
2024/01/25 06:56:31;;;;;;;12.80;3.95;;;;;;;;;;5076440;28;20028;-76
2024/01/25 06:58:57;;;;;;;24.60;5.65;;;;;;;;;;5087920;28;20046;-78
2024/01/25 07:01:23;;;;;;;22.48;4.78;;;;;;;;;;5086364;28;20086;-76
2024/01/25 07:03:50;;;;;;;13.82;4.85;;;;;;;;;;5086755;28;20064;-75
2024/01/25 07:06:17;;;;;;;19.60;6.47;;;;;;;;;;5093148;28;20531;-78
2024/01/25 07:08:43;;;;;;;29.83;7.13;;;;;;;;;;5080039;28;20032;-78
2024/01/25 07:11:09;;;;;;;25.50;6.30;;;;;;;;;;5084989;28;20047;-77
2024/01/25 07:13:35;;;;;;;15.65;4.90;;;;;;;;;;5085697;28;20115;-77
2024/01/25 07:16:01;;;;;;;12.25;4.57;;;;;;;;;;5087386;28;20503;-77
2024/01/25 07:18:27;;;;;;;16.83;3.63;;;;;;;;;;5083617;28;20093;-77
2024/01/25 07:20:52;;;;;;;12.18;2.50;;;;;;;;;;5088854;28;20031;-77
2024/01/25 07:23:18;;;;;;;9.88;2.35;;;;;;;;;;5082076;28;20101;-77
2024/01/25 07:25:45;;;;;;;12.10;1.48;;;;;;;;;;5085345;28;20031;-76
2024/01/25 07:28:11;;;;;;;3.40;1.52;;;;;;;;;;5088499;28;20898;-76
2024/01/25 07:30:37;;;;;;;9.35;1.42;;;;;;;;;;5083423;28;20419;-76
2024/01/25 07:33:03;;;;;;;4.22;1.30;;;;;;;;;;5085030;28;20032;-77
2024/01/25 07:35:29;;;;;;;5.75;1.60;;;;;;;;;;5092981;28;20035;-77
2024/01/25 07:37:55;;;;;;;7.28;2.05;;;;;;;;;;5078318;28;20524;-76
2024/01/25 07:40:21;;;;;;;10.63;4.03;;;;;;;;;;5080583;28;20375;-77
2024/01/25 07:42:47;;;;;;;8.30;2.58;;;;;;;;;;5083688;28;20436;-77
2024/01/25 07:45:13;;;;;;;7.45;2.30;;;;;;;;;;5085842;28;20032;-77
2024/01/25 07:47:41;;;;;;;13.20;2.53;;;;;;;;;;5078073;28;20054;-76
2024/01/25 07:50:08;;;;;;;14.95;4.05;;;4.50;99.90;;;;;;5085394;28;20024;-77
2024/01/25 07:52:34;;;;;;;19.50;3.05;;;;;;;;;;5082176;28;20044;-77
2024/01/25 07:55:00;;;;;;;9.27;2.60;;;;;;;;;;5085669;28;20384;-76
2024/01/25 07:57:25;;;;;;;8.20;3.80;;;;;;;;;;5087595;28;20024;-77
2024/01/25 07:59:51;;;;;;;15.88;3.67;;;;;;;;;;5095008;28;20067;-76
2024/01/25 08:02:18;;;;;;;20.27;4.10;;;;;;;;;;5086790;28;20020;-78
2024/01/25 08:04:44;;;;;;;17.35;4.18;;;;;;;;;;5087638;28;20016;-77
2024/01/25 08:07:10;;;;;;;67.15;12.48;;;;;;;;;;5079341;28;20028;-77
2024/01/25 08:09:36;;;;;;;36.13;9.18;;;;;;;;;;5073949;28;20104;-77
2024/01/25 08:12:02;;;;;;;31.90;6.97;;;;;;;;;;5085961;28;20032;-78
2024/01/25 08:14:28;;;;;;;24.08;5.28;;;;;;;;;;5088041;28;20115;-78
2024/01/25 08:16:55;;;;;;;13.93;4.28;;;;;;;;;;5085235;28;20520;-78
2024/01/25 08:19:21;;;;;;;14.48;4.85;;;;;;;;;;5091047;28;20020;-78
2024/01/25 08:21:47;;;;;;;17.60;5.30;;;;;;;;;;5086309;28;20028;-77
2024/01/25 08:24:13;;;;;;;16.85;5.85;;;;;;;;;;5076681;28;20036;-77
2024/01/25 08:26:39;;;;;;;11.63;4.13;;;;;;;;;;5084265;28;20040;-78
2024/01/25 08:29:05;;;;;;;16.23;5.15;;;;;;;;;;5084212;28;20396;-77
2024/01/25 08:31:31;;;;;;;12.65;3.70;;;;;;;;;;5082878;28;20514;-77
2024/01/25 08:33:57;;;;;;;16.60;5.63;;;;;;;;;;5088192;28;20046;-77
2024/01/25 08:36:24;;;;;;;16.95;4.90;;;;;;;;;;5075067;28;20033;-77
2024/01/25 08:38:50;;;;;;;20.02;5.35;;;;;;;;;;5084688;28;20093;-76
2024/01/25 08:41:16;;;;;;;23.38;5.03;;;;;;;;;;5085606;28;20434;-76
2024/01/25 08:43:42;;;;;;;10.32;4.05;;;;;;;;;;5081030;28;20246;-77
2024/01/25 08:46:08;;;;;;;9.35;1.85;;;;;;;;;;5089893;28;20024;-76
2024/01/25 08:48:34;;;;;;;6.82;1.92;;;;;;;;;;5086150;28;20036;-76
2024/01/25 08:51:00;;;;;;;7.30;2.67;;;;;;;;;;5091212;28;20115;-76
2024/01/25 08:53:29;;;;;;;27.52;2.72;;;;;;;;;;5087279;28;20107;-77
2024/01/25 08:55:55;;;;;;;13.30;3.35;;;;;;;;;;5088826;28;20035;-77
2024/01/25 08:58:21;;;;;;;14.80;3.67;;;;;;;;;;5096588;28;20020;-76
2024/01/25 09:00:47;;;;;;;11.32;2.97;;;;;;;;;;5086048;28;20035;-77
2024/01/25 09:03:14;;;;;;;12.52;3.55;;;;;;;;;;5089745;28;20423;-77
2024/01/25 09:05:44;;;;;;;10.27;2.42;;;;;;;;;;5095836;28;20031;-77
2024/01/25 09:08:11;;;;;;;14.90;2.75;;;;;;;;;;5089794;28;20096;-77
2024/01/25 09:10:37;;;;;;;8.35;1.45;;;;;;;;;;5087379;28;20028;-78
2024/01/25 09:13:03;;;;;;;12.95;1.85;;;;;;;;;;5090310;28;20024;-77
2024/01/25 09:15:29;;;;;;;8.13;1.52;;;;;;;;;;5096761;28;20135;-77
2024/01/25 09:17:55;;;;;;;22.23;3.47;;;;;;;;;;5086991;28;20240;-76
2024/01/25 09:20:21;;;;;;;6.43;1.80;;;;;;;;;;5088299;28;20035;-78
2024/01/25 09:22:47;;;;;;;16.15;3.13;;;;;;;;;;5085156;28;20058;-77
2024/01/25 09:25:14;;;;;;;14.52;3.17;;;;;;;;;;5085819;28;20103;-78
2024/01/25 09:27:40;;;;;;;13.85;1.98;;;;;;;;;;5092948;28;20503;-77
2024/01/25 09:30:06;;;;;;;7.22;2.03;;;;;;;;;;5086654;28;20085;-78
2024/01/25 09:32:32;;;;;;;13.90;1.92;;;;;;;;;;5085982;28;20034;-77
2024/01/25 09:34:58;;;;;;;12.77;1.83;;;;;;;;;;5088545;28;20131;-77
2024/01/25 09:37:24;;;;;;;14.20;1.90;;;;;;;;;;5089172;28;20020;-77
2024/01/25 09:39:54;;;;;;;11.48;2.95;;;;;;;;;;5092188;28;20215;-77
2024/01/25 09:42:20;;;;;;;5.72;1.35;;;;;;;;;;5086512;28;20176;-78
2024/01/25 09:44:46;;;;;;;10.88;1.38;;;;;;;;;;5095062;28;20027;-77
2024/01/25 09:47:13;;;;;;;18.77;1.70;;;;;;;;;;5077963;28;20016;-76
2024/01/25 09:49:39;;;;;;;10.93;1.90;;;;;;;;;;5085466;28;20047;-78
2024/01/25 09:52:05;;;;;;;17.92;2.00;;;;;;;;;;5090084;28;20492;-77
2024/01/25 09:54:37;;;;;;;17.00;2.33;;;9.00;99.90;;;;;;5087903;28;20024;-77
2024/01/25 09:57:06;;;;;;;8.95;2.80;;;;;;;;;;5085753;28;20084;-77
2024/01/25 09:59:32;;;;;;;16.85;2.10;;;;;;;;;;5089591;28;20031;-78
2024/01/25 10:01:59;;;;;;;10.43;2.60;;;;;;;;;;5087541;28;20024;-77
2024/01/25 10:04:25;;;;;;;11.45;2.10;;;;;;;;;;5086786;28;20507;-79
2024/01/25 10:06:56;;;;;;;9.57;2.13;;;10.00;99.90;;;;;;5089650;28;20039;-78
2024/01/25 10:09:22;;;;;;;12.40;2.05;;;;;;;;;;5085996;28;20028;-76
2024/01/25 10:11:49;;;;;;;18.00;2.80;;;;;;;;;;5090854;28;20079;-77
2024/01/25 10:14:15;;;;;;;15.85;2.45;;;;;;;;;;5090035;28;20032;-76
2024/01/25 10:16:41;;;;;;;17.00;2.58;;;;;;;;;;5089596;28;20442;-77
2024/01/25 10:19:07;;;;;;;16.60;2.22;;;;;;;;;;5091846;28;20028;-77
2024/01/25 10:21:35;;;;;;;13.07;2.70;;;;;;;;;;5090076;28;20503;-77
2024/01/25 10:24:02;;;;;;;9.05;1.98;;;;;;;;;;5077863;28;20042;-78
2024/01/25 10:26:28;;;;;;;5.25;1.75;;;;;;;;;;5087154;28;20416;-77
2024/01/25 10:28:54;;;;;;;16.20;2.33;;;;;;;;;;5093730;28;20111;-77
2024/01/25 10:31:24;;;;;;;10.73;2.60;;;;;;;;;;5085126;28;20024;-76
2024/01/25 10:33:51;;;;;;;10.68;2.67;;;;;;;;;;5084532;28;20423;-76
2024/01/25 10:36:17;;;;;;;14.23;2.08;;;;;;;;;;5083053;28;20227;-78
2024/01/25 10:38:47;;;;;;;7.25;2.25;;;9.70;99.90;;;;;;5083322;28;20115;-77
2024/01/25 10:41:14;;;;;;;21.50;2.45;;;;;;;;;;5086708;28;20032;-77
2024/01/25 10:43:40;;;;;;;15.68;2.10;;;;;;;;;;5089720;28;20039;-76
2024/01/25 10:46:06;;;;;;;14.85;2.25;;;;;;;;;;5093182;28;20081;-76
2024/01/25 10:48:32;;;;;;;15.55;2.33;;;;;;;;;;5089294;28;20028;-76
2024/01/25 10:51:02;;;;;;;17.20;2.63;;;;;;;;;;5092499;28;20024;-75
2024/01/25 10:53:30;;;;;;;15.43;2.40;;;;;;;;;;5081705;28;20047;-76
2024/01/25 10:55:56;;;;;;;21.65;3.13;;;;;;;;;;5088855;28;20035;-76
2024/01/25 10:58:22;;;;;;;14.63;2.60;;;;;;;;;;5084946;28;20027;-76
2024/01/25 11:01:12;;;;;;;11.25;1.55;;;;;;;;;;5082157;28;20416;-75
2024/01/25 11:03:40;;;;;;;10.55;1.80;;;;;;;;;;5070056;28;20213;-76
2024/01/25 11:06:09;;;;;;;7.38;2.00;;;9.40;99.90;;;;;;5078151;28;20550;-76
2024/01/25 11:08:37;;;;;;;13.27;1.52;;;;;;;;;;5086936;28;20097;-76
2024/01/25 11:11:04;;;;;;;12.57;2.10;;;;;;;;;;5084096;28;20119;-76
2024/01/25 11:13:30;;;;;;;10.90;3.38;;;;;;;;;;5089028;28;20093;-77
2024/01/25 11:15:56;;;;;;;12.50;3.00;;;;;;;;;;5089385;28;20055;-77
2024/01/25 11:18:25;;;;;;;15.98;2.47;;;;;;;;;;5086417;28;20036;-76
2024/01/25 11:20:52;;;;;;;13.43;1.70;;;;;;;;;;5093725;28;20069;-76
2024/01/25 11:23:18;;;;;;;15.68;2.50;;;;;;;;;;5088240;28;20107;-77
2024/01/25 11:25:48;;;;;;;13.50;1.73;;;;;;;;;;5091581;28;20525;-76
2024/01/25 11:28:17;;;;;;;11.15;1.20;;;;;;;;;;5074184;28;20107;-76
2024/01/25 11:30:43;;;;;;;14.15;2.58;;;;;;;;;;5086693;28;20035;-76
2024/01/25 11:33:10;;;;;;;15.52;2.53;;;;;;;;;;5078835;28;20086;-76
2024/01/25 11:35:36;;;;;;;9.82;2.95;;;;;;;;;;5091643;28;20088;-76
2024/01/25 11:38:02;;;;;;;14.55;2.22;;;;;;;;;;5087341;28;20047;-75
2024/01/25 11:40:29;;;;;;;9.82;1.42;;;;;;;;;;5082778;28;20503;-76
2024/01/25 11:42:55;;;;;;;10.98;2.50;;;;;;;;;;5085067;28;20024;-77
2024/01/25 11:45:22;;;;;;;22.63;2.90;;;;;;;;;;5088198;28;20485;-78
2024/01/25 11:47:48;;;;;;;19.13;1.65;;;;;;;;;;5082528;28;20063;-76
2024/01/25 11:50:14;;;;;;;22.35;2.13;;;;;;;;;;5092086;28;20031;-77
2024/01/25 11:52:40;;;;;;;12.32;3.45;;;;;;;;;;5087539;28;20122;-76
2024/01/25 11:55:07;;;;;;;23.83;7.05;;;;;;;;;;5095495;28;20067;-76
2024/01/25 11:57:37;;;;;;;13.27;2.65;;;;;;;;;;5094796;28;20028;-78
2024/01/25 12:00:04;;;;;;;13.48;2.53;;;;;;;;;;5091044;28;20028;-78
2024/01/25 12:02:31;;;;;;;13.88;2.85;;;;;;;;;;5087987;28;20021;-78
2024/01/25 12:04:57;;;;;;;15.05;1.60;;;;;;;;;;5090992;28;20028;-77
2024/01/25 12:07:23;;;;;;;19.77;3.13;;;;;;;;;;5092290;28;20020;-77
2024/01/25 12:10:03;;;;;;;46.53;14.98;;;;;;;;;;5079069;28;20037;-78
2024/01/25 12:12:29;;;;;;;23.15;4.72;;;;;;;;;;5085551;28;20024;-78
2024/01/25 12:15:03;;;;;;;10.93;2.70;;;;;;;;;;5095312;28;20028;-77
2024/01/25 12:17:29;;;;;;;18.17;1.45;;;;;;;;;;5086002;28;20401;-77
2024/01/25 12:19:56;;;;;;;9.27;1.35;;;;;;;;;;5091513;28;20445;-76
2024/01/25 12:22:22;;;;;;;25.60;2.00;;;;;;;;;;5086171;28;20121;-76
2024/01/25 12:24:49;;;;;;;10.68;1.63;;;;;;;;;;5090074;28;20043;-77
2024/01/25 12:27:17;;;;;;;13.20;2.40;;;;;;;;;;5088280;28;20677;-78
2024/01/25 12:29:43;;;;;;;10.95;1.85;;;;;;;;;;5091569;28;20185;-77
2024/01/25 12:32:10;;;;;;;7.50;2.20;;;;;;;;;;5081814;28;20547;-78
2024/01/25 12:34:37;;;;;;;12.23;2.10;;;;;;;;;;5083058;28;20024;-77
2024/01/25 12:37:03;;;;;;;13.95;2.30;;;;;;;;;;5081159;28;20487;-76
2024/01/25 12:39:29;;;;;;;12.70;1.30;;;10.70;99.90;;;;;;5087023;28;20024;-78
2024/01/25 12:41:55;;;;;;;6.35;1.73;;;;;;;;;;5086571;28;20034;-77
2024/01/25 12:44:21;;;;;;;12.27;1.25;;;;;;;;;;5088666;28;20085;-77
2024/01/25 12:46:47;;;;;;;28.13;3.78;;;;;;;;;;5087087;28;20017;-76
2024/01/25 12:49:12;;;;;;;8.90;1.35;;;;;;;;;;5088153;28;20454;-76
2024/01/25 12:51:38;;;;;;;13.68;1.67;;;;;;;;;;5084963;28;20032;-76
2024/01/25 12:54:05;;;;;;;7.60;1.42;;;;;;;;;;5084691;28;20512;-77
2024/01/25 12:56:30;;;;;;;9.63;2.50;;;;;;;;;;5086598;28;20016;-78
2024/01/25 12:58:56;;;;;;;13.57;1.88;;;;;;;;;;5094150;28;20144;-77
2024/01/25 13:01:22;;;;;;;15.48;2.65;;;;;;;;;;5085727;28;20028;-76
2024/01/25 13:03:48;;;;;;;7.75;2.05;;;;;;;;;;5076973;28;20028;-77
2024/01/25 13:06:15;;;;;;;11.38;1.83;;;;;;;;;;5080412;28;20043;-78
2024/01/25 13:08:41;;;;;;;8.32;1.48;;;;;;;;;;5084856;28;20059;-76
2024/01/25 13:11:07;;;;;;;21.13;2.30;;;;;;;;;;5087542;28;20032;-78
2024/01/25 13:13:33;;;;;;;8.98;1.70;;;11.80;99.90;;;;;;5087925;28;20503;-77
2024/01/25 13:15:59;;;;;;;10.85;1.90;;;;;;;;;;5084828;28;20055;-77
2024/01/25 13:18:26;;;;;;;23.15;3.30;;;;;;;;;;5086198;28;20017;-77
2024/01/25 13:20:51;;;;;;;8.65;1.30;;;;;;;;;;5086564;28;20035;-78
2024/01/25 13:23:17;;;;;;;15.07;2.15;;;;;;;;;;5079596;28;20032;-78
2024/01/25 13:25:43;;;;;;;10.15;2.10;;;;;;;;;;5083593;28;20508;-78
2024/01/25 13:28:09;;;;;;;10.82;1.63;;;;;;;;;;5095559;28;20463;-80
2024/01/25 13:30:35;;;;;;;14.77;2.03;;;;;;;;;;5076867;28;20458;-76
2024/01/25 13:33:01;;;;;;;16.77;2.10;;;;;;;;;;5070728;28;20399;-75
2024/01/25 13:35:27;;;;;;;9.25;3.38;;;11.60;99.90;;;;;;5077437;28;20055;-77
2024/01/25 13:37:53;;;;;;;10.43;2.05;;;;;;;;;;5080107;28;20060;-76
2024/01/25 13:40:19;;;;;;;11.55;3.13;;;;;;;;;;5086445;28;20028;-78
2024/01/25 13:42:45;;;;;;;11.23;2.08;;;;;;;;;;5089791;28;20115;-76
2024/01/25 13:45:10;;;;;;;9.10;1.65;;;;;;;;;;5085082;28;20028;-77
2024/01/25 13:47:36;;;;;;;8.48;1.52;;;;;;;;;;5087213;28;20111;-76
2024/01/25 13:50:02;;;;;;;15.50;1.85;;;;;;;;;;5069879;28;20031;-77
2024/01/25 13:52:28;;;;;;;10.52;1.60;;;;;;;;;;5086294;28;20500;-78
2024/01/25 13:54:54;;;;;;;12.05;1.83;;;;;;;;;;5084901;28;20023;-77
2024/01/25 13:57:23;;;;;;;6.18;1.15;;;;;;;;;;5083792;28;20440;-77
2024/01/25 13:59:49;;;;;;;6.35;1.10;;;;;;;;;;5088188;28;20519;-76
2024/01/25 14:02:15;;;;;;;21.65;2.20;;;;;;;;;;5080443;28;20032;-76
2024/01/25 14:04:41;;;;;;;8.95;2.05;;;;;;;;;;5091580;28;20027;-78
2024/01/25 14:07:07;;;;;;;12.63;1.95;;;;;;;;;;5088380;28;20504;-76
2024/01/25 14:09:33;;;;;;;16.17;2.15;;;;;;;;;;5087179;28;20079;-76
2024/01/25 14:11:59;;;;;;;13.23;1.70;;;;;;;;;;5081046;28;20038;-77
2024/01/25 14:14:25;;;;;;;9.93;1.50;;;;;;;;;;5085421;28;20114;-77
2024/01/25 14:16:51;;;;;;;13.40;1.40;;;;;;;;;;5083682;28;20186;-78
2024/01/25 14:19:20;;;;;;;12.70;1.63;;;;;;;;;;5067806;28;20574;-77
2024/01/25 14:21:47;;;;;;;15.27;1.35;;;;;;;;;;5086436;28;20160;-77
2024/01/25 14:24:13;;;;;;;13.32;1.50;;;;;;;;;;5084571;28;20478;-77